createdAt,value
2023-01-05T00:01:35.473Z,1.00
2023-01-05T00:04:04.152Z,0.90
2023-01-05T00:06:33.311Z,1.17
2023-01-05T00:09:01.092Z,0.90
2023-01-05T00:11:46.707Z,1.00
2023-01-05T00:14:32.747Z,0.88
2023-01-05T00:17:17.859Z,0.70
2023-01-05T00:20:02.999Z,1.00
2023-01-05T00:22:34.160Z,0.95
2023-01-05T00:25:09.216Z,1.77
2023-01-05T00:27:39.910Z,0.80
2023-01-05T00:30:08.237Z,0.88
2023-01-05T00:32:35.758Z,0.93
2023-01-05T00:35:03.332Z,0.80
2023-01-05T00:37:34.720Z,0.80
2023-01-05T00:40:02.488Z,0.80
2023-01-05T00:42:29.968Z,0.82
2023-01-05T00:44:57.512Z,0.90
2023-01-05T00:47:25.167Z,0.80
2023-01-05T00:49:52.784Z,1.75
2023-01-05T00:52:20.374Z,1.02
2023-01-05T00:54:49.324Z,0.75
2023-01-05T00:57:17.005Z,0.70
2023-01-05T00:59:44.644Z,0.93
2023-01-05T01:02:12.497Z,0.88
2023-01-05T01:04:40.294Z,0.80
2023-01-05T01:07:07.986Z,0.68
2023-01-05T01:09:35.609Z,0.80
2023-01-05T01:12:04.615Z,0.70
2023-01-05T01:14:32.181Z,0.70
2023-01-05T01:16:59.810Z,1.20
2023-01-05T01:19:27.877Z,1.85
2023-01-05T01:21:55.421Z,1.60
2023-01-05T01:24:23.926Z,1.52
2023-01-05T01:26:53.936Z,0.80
2023-01-05T01:29:25.918Z,0.80
2023-01-05T01:31:54.671Z,0.85
2023-01-05T01:34:23.191Z,0.80
2023-01-05T01:36:50.807Z,1.88
2023-01-05T01:39:18.396Z,0.70
2023-01-05T01:41:45.983Z,2.53
2023-01-05T01:44:32.218Z,1.55
2023-01-05T01:47:01.431Z,0.77
2023-01-05T01:49:29.171Z,0.80
2023-01-05T01:51:56.743Z,0.70
2023-01-05T01:54:24.328Z,0.80
2023-01-05T01:56:52.954Z,1.13
2023-01-05T01:59:20.665Z,0.98
2023-01-05T02:01:50.242Z,0.70
2023-01-05T02:04:19.715Z,0.70
2023-01-05T02:06:47.492Z,0.80
2023-01-05T02:09:15.086Z,0.75
2023-01-05T02:11:45.126Z,0.73
2023-01-05T02:14:19.645Z,0.60
2023-01-05T02:16:49.669Z,0.80
2023-01-05T02:19:35.785Z,0.77
2023-01-05T02:22:09.872Z,0.57
2023-01-05T02:24:52.293Z,1.15
2023-01-05T02:27:37.083Z,0.80
2023-01-05T02:30:29.706Z,1.38
2023-01-05T02:33:00.757Z,0.82
2023-01-05T02:35:31.276Z,0.80
2023-01-05T02:38:02.698Z,0.80
2023-01-05T02:40:33.280Z,0.70
2023-01-05T02:43:01.960Z,0.70
2023-01-05T02:45:32.266Z,1.58
2023-01-05T02:48:01.674Z,0.90
2023-01-05T02:50:30.377Z,1.00
2023-01-05T02:52:59.112Z,0.90
2023-01-05T02:55:28.995Z,1.17
2023-01-05T02:57:58.225Z,0.80
2023-01-05T03:00:27.705Z,0.63
2023-01-05T03:03:08.693Z,0.80
2023-01-05T03:05:38.148Z,0.70
2023-01-05T03:08:09.343Z,0.73
2023-01-05T03:10:58.060Z,0.50
2023-01-05T03:13:44.952Z,0.90
2023-01-05T03:16:14.511Z,1.48
2023-01-05T03:19:01.812Z,0.55
2023-01-05T03:21:29.666Z,0.80
2023-01-05T03:24:16.066Z,0.65
2023-01-05T03:27:01.192Z,0.80
2023-01-05T03:29:46.360Z,0.60
2023-01-05T03:32:35.954Z,0.70
2023-01-05T03:35:24.059Z,0.60
2023-01-05T03:37:55.061Z,1.70
2023-01-05T03:40:23.601Z,0.80
2023-01-05T03:42:51.202Z,0.80
2023-01-05T03:45:19.467Z,1.00
2023-01-05T03:47:47.038Z,0.70
2023-01-05T03:50:16.182Z,0.70
2023-01-05T03:52:43.665Z,0.70
2023-01-05T03:55:11.229Z,0.68
2023-01-05T03:57:38.837Z,0.60
2023-01-05T04:00:06.685Z,0.65
2023-01-05T04:02:34.411Z,0.70
2023-01-05T04:05:02.303Z,0.77
2023-01-05T04:07:31.413Z,0.80
2023-01-05T04:09:58.981Z,1.73
2023-01-05T04:12:26.439Z,0.80
2023-01-05T04:14:53.992Z,0.90
2023-01-05T04:17:21.638Z,0.70
2023-01-05T04:19:49.100Z,0.93
2023-01-05T04:22:18.088Z,0.70
2023-01-05T04:24:48.776Z,0.60
2023-01-05T04:27:16.313Z,0.60
2023-01-05T04:29:43.836Z,1.20
2023-01-05T04:32:11.411Z,0.70
2023-01-05T04:34:38.985Z,0.80
2023-01-05T04:37:06.563Z,0.95
2023-01-05T04:39:34.179Z,1.13
2023-01-05T04:42:03.014Z,0.90
2023-01-05T04:44:30.623Z,0.95
2023-01-05T04:46:58.246Z,0.90
2023-01-05T04:49:25.951Z,1.20
2023-01-05T04:51:53.507Z,1.33
2023-01-05T04:54:21.042Z,1.20
2023-01-05T04:56:48.601Z,1.30
2023-01-05T04:59:17.577Z,1.30
2023-01-05T05:01:45.394Z,1.42
2023-01-05T05:04:13.048Z,1.58
2023-01-05T05:06:40.620Z,2.08
2023-01-05T05:09:08.130Z,1.83
2023-01-05T05:11:35.665Z,2.08
2023-01-05T05:14:03.174Z,1.38
2023-01-05T05:16:32.190Z,1.52
2023-01-05T05:18:59.945Z,1.60
2023-01-05T05:21:27.520Z,1.75
2023-01-05T05:23:55.108Z,4.18
2023-01-05T05:26:22.677Z,1.52
2023-01-05T05:28:50.237Z,4.40
2023-01-05T05:31:17.786Z,1.98
2023-01-05T05:33:46.731Z,2.55
2023-01-05T05:36:14.425Z,1.20
2023-01-05T05:38:42.005Z,1.17
2023-01-05T05:41:09.586Z,1.75
2023-01-05T05:43:37.104Z,0.85
2023-01-05T05:46:05.153Z,0.90
2023-01-05T05:48:32.963Z,2.60
2023-01-05T05:51:01.976Z,1.52
2023-01-05T05:53:29.498Z,2.40
2023-01-05T05:55:57.110Z,3.10
2023-01-05T05:58:24.697Z,1.13
2023-01-05T06:00:52.595Z,0.93
2023-01-05T06:03:20.634Z,0.80
2023-01-05T06:05:48.251Z,1.40
2023-01-05T06:08:19.541Z,0.95
2023-01-05T06:10:47.147Z,1.27
2023-01-05T06:15:55.617Z,3.70
2023-01-05T06:18:23.323Z,2.53
2023-01-05T06:20:52.995Z,1.00
2023-01-05T06:23:25.437Z,2.70
2023-01-05T06:25:53.055Z,5.63
2023-01-05T06:28:20.637Z,1.75
2023-01-05T06:30:48.354Z,1.95
2023-01-05T06:33:16.064Z,3.90
2023-01-05T06:35:43.664Z,3.88
2023-01-05T06:38:11.324Z,3.42
2023-01-05T06:40:44.300Z,3.10
2023-01-05T06:43:12.100Z,6.20
2023-01-05T06:45:39.860Z,3.63
2023-01-05T06:48:07.511Z,7.22
2023-01-05T06:50:35.244Z,5.55
2023-01-05T06:53:03.119Z,1.88
2023-01-05T06:55:30.725Z,3.60
2023-01-05T06:58:01.201Z,2.65
2023-01-05T07:00:29.503Z,3.10
2023-01-05T07:02:57.192Z,6.10
2023-01-05T07:05:24.909Z,4.20
2023-01-05T07:07:52.606Z,8.93
2023-01-05T07:10:20.242Z,6.70
2023-01-05T07:12:47.734Z,3.03
2023-01-05T07:15:17.038Z,10.70
2023-01-05T07:17:44.609Z,5.22
2023-01-05T07:20:12.201Z,5.03
2023-01-05T07:22:39.835Z,7.72
2023-01-05T07:25:07.805Z,3.70
2023-01-05T07:27:35.689Z,5.80
2023-01-05T07:30:03.194Z,10.38
2023-01-05T07:32:32.141Z,2.90
2023-01-05T07:34:59.657Z,2.58
2023-01-05T07:37:27.554Z,10.80
2023-01-05T07:39:55.071Z,7.80
2023-01-05T07:42:22.514Z,4.88
2023-01-05T07:44:50.073Z,6.85
2023-01-05T07:47:17.610Z,10.90
2023-01-05T07:49:46.493Z,8.55
2023-01-05T07:52:14.010Z,7.38
2023-01-05T07:54:41.561Z,7.80
2023-01-05T07:57:09.027Z,26.05
2023-01-05T07:59:36.572Z,17.13
2023-01-05T08:02:04.372Z,6.50
2023-01-05T08:04:32.165Z,8.57
2023-01-05T08:07:01.806Z,9.65
2023-01-05T08:09:47.343Z,10.25
2023-01-05T08:12:15.021Z,7.88
2023-01-05T08:14:42.669Z,6.07
2023-01-05T08:17:10.520Z,5.45
2023-01-05T08:19:38.044Z,9.52
2023-01-05T08:22:06.946Z,10.18
2023-01-05T08:24:34.493Z,6.43
2023-01-05T08:27:02.104Z,9.90
2023-01-05T08:29:29.834Z,6.47
2023-01-05T08:31:57.391Z,5.70
2023-01-05T08:34:34.305Z,9.90
2023-01-05T08:37:02.296Z,11.45
2023-01-05T08:39:31.267Z,15.40
2023-01-05T08:42:02.561Z,8.57
2023-01-05T08:44:30.562Z,6.10
2023-01-05T08:46:58.035Z,9.90
2023-01-05T08:49:25.582Z,4.65
2023-01-05T08:51:53.136Z,6.55
2023-01-05T08:54:20.610Z,5.45
2023-01-05T08:56:50.767Z,8.75
2023-01-05T08:59:18.305Z,9.02
2023-01-05T09:01:46.197Z,7.25
2023-01-05T09:04:13.829Z,7.15
2023-01-05T09:06:41.691Z,5.95
2023-01-05T09:09:09.215Z,3.30
2023-01-05T09:11:36.774Z,12.88
2023-01-05T09:14:05.693Z,2.22
2023-01-05T09:17:05.056Z,8.13
2023-01-05T09:19:22.372Z,6.75
2023-01-05T09:21:49.967Z,4.72
2023-01-05T09:24:17.549Z,3.50
2023-01-05T09:26:45.305Z,4.65
2023-01-05T09:29:14.539Z,6.30
2023-01-05T09:31:42.509Z,9.93
2023-01-05T09:34:10.356Z,9.48
2023-01-05T09:36:38.715Z,8.70
2023-01-05T09:39:06.573Z,5.30
2023-01-05T09:41:35.222Z,4.53
2023-01-05T09:44:04.463Z,6.53
2023-01-05T09:46:35.123Z,7.72
2023-01-05T09:49:04.234Z,5.20
2023-01-05T09:51:32.062Z,8.52
2023-01-05T09:54:00.234Z,5.43
2023-01-05T09:57:07.514Z,10.48
2023-01-05T09:59:19.543Z,6.05
2023-01-05T10:01:49.470Z,7.38
2023-01-05T10:04:18.049Z,8.75
2023-01-05T10:06:47.519Z,9.55
2023-01-05T10:09:17.284Z,21.98
2023-01-05T10:12:05.766Z,11.10
2023-01-05T10:14:36.481Z,7.38
2023-01-05T10:17:39.739Z,8.00
2023-01-05T10:19:56.192Z,12.68
2023-01-05T10:22:39.014Z,6.50
2023-01-05T10:25:11.010Z,6.28
2023-01-05T10:27:41.629Z,16.23
2023-01-05T10:30:14.456Z,7.72
2023-01-05T10:32:50.555Z,16.90
2023-01-05T10:35:59.716Z,10.05
2023-01-05T10:38:19.117Z,78.50
2023-01-05T10:40:51.801Z,14.52
2023-01-05T10:43:30.577Z,134.52
2023-01-05T10:46:29.928Z,15.95
2023-01-05T10:48:47.573Z,27.58
2023-01-05T10:51:15.150Z,20.90
2023-01-05T10:53:43.701Z,13.63
2023-01-05T10:56:15.410Z,19.75
2023-01-05T10:58:43.912Z,10.93
2023-01-05T11:01:21.041Z,12.07
2023-01-05T11:04:26.575Z,13.15
2023-01-05T11:06:38.426Z,10.60
2023-01-05T11:09:07.644Z,6.68
2023-01-05T11:11:35.554Z,10.95
2023-01-05T11:14:03.130Z,8.93
2023-01-05T11:16:32.602Z,12.35
2023-01-05T11:19:02.765Z,13.80
2023-01-05T11:21:43.360Z,22.70
2023-01-05T11:24:28.034Z,8.88
2023-01-05T11:26:56.606Z,12.10
2023-01-05T11:29:24.152Z,12.63
2023-01-05T11:31:53.905Z,16.55
2023-01-05T11:34:34.760Z,13.65
2023-01-05T11:37:07.878Z,8.95
2023-01-05T11:39:40.031Z,13.43
2023-01-05T11:42:21.571Z,9.85
2023-01-05T11:44:53.510Z,13.52
2023-01-05T11:47:27.009Z,13.85
2023-01-05T11:50:09.531Z,9.35
2023-01-05T11:52:38.871Z,15.02
2023-01-05T11:55:25.152Z,7.90
2023-01-05T11:57:59.757Z,10.15
2023-01-05T12:00:29.153Z,14.80
2023-01-05T12:03:11.363Z,8.55
2023-01-05T12:05:45.492Z,18.60
2023-01-05T12:08:15.216Z,10.88
2023-01-05T12:10:52.132Z,22.10
2023-01-05T12:13:31.130Z,16.50
2023-01-05T12:16:07.503Z,16.30
2023-01-05T12:18:51.415Z,7.50
2023-01-05T12:21:23.782Z,14.98
2023-01-05T12:24:09.356Z,8.00
2023-01-05T12:26:39.628Z,13.35
2023-01-05T12:31:06.518Z,8.75
2023-01-05T12:35:22.443Z,7.43
2023-01-05T12:38:05.197Z,11.57
2023-01-05T12:40:39.603Z,10.63
2023-01-05T12:43:09.948Z,13.00
2023-01-05T12:46:01.175Z,13.35
2023-01-05T12:48:30.394Z,16.00
2023-01-05T12:51:00.093Z,10.02
2023-01-05T12:53:34.154Z,14.80
2023-01-05T12:56:04.297Z,12.80
2023-01-05T12:58:34.069Z,10.63
2023-01-05T13:01:02.463Z,9.60
2023-01-05T13:03:33.598Z,15.93
2023-01-05T13:06:04.221Z,9.15
2023-01-05T13:08:38.632Z,22.58
2023-01-05T13:11:11.028Z,12.02
2023-01-05T13:13:39.712Z,14.52
2023-01-05T13:16:12.983Z,12.68
2023-01-05T13:18:43.934Z,17.88
2023-01-05T13:21:15.192Z,10.18
2023-01-05T13:23:46.777Z,11.85
2023-01-05T13:26:15.680Z,19.90
2023-01-05T13:28:43.622Z,18.52
2023-01-05T13:31:19.705Z,12.25
2023-01-05T13:34:01.431Z,11.30
2023-01-05T13:36:35.012Z,16.65
2023-01-05T13:39:20.573Z,11.70
2023-01-05T13:41:59.094Z,19.73
2023-01-05T13:44:40.873Z,10.23
2023-01-05T13:47:27.963Z,12.88
2023-01-05T13:50:19.398Z,14.52
2023-01-05T13:52:55.258Z,16.95
2023-01-05T13:55:26.030Z,9.25
2023-01-05T13:57:56.558Z,13.63
2023-01-05T14:00:26.700Z,12.82
2023-01-05T14:03:00.521Z,30.13
2023-01-05T14:05:31.717Z,15.75
2023-01-05T14:08:02.289Z,16.02
2023-01-05T14:10:32.031Z,14.85
2023-01-05T14:13:01.053Z,14.38
2023-01-05T14:15:43.486Z,20.17
2023-01-05T14:18:11.507Z,13.77
2023-01-05T14:20:44.765Z,15.48
2023-01-05T14:23:45.354Z,13.45
2023-01-05T14:26:13.290Z,12.68
2023-01-05T14:28:44.337Z,11.05
2023-01-05T14:31:36.765Z,17.88
2023-01-05T14:34:07.584Z,21.77
2023-01-05T14:36:36.266Z,21.58
2023-01-05T14:39:05.043Z,18.67
2023-01-05T14:41:32.646Z,12.15
2023-01-05T14:44:03.711Z,10.23
2023-01-05T14:46:45.347Z,13.57
2023-01-05T14:49:20.309Z,10.88
2023-01-05T14:51:53.690Z,16.52
2023-01-05T14:54:36.230Z,12.90
2023-01-05T14:57:21.911Z,13.55
2023-01-05T14:59:52.126Z,14.82
2023-01-05T15:02:22.313Z,20.80
2023-01-05T15:04:52.241Z,13.95
2023-01-05T15:07:26.979Z,15.85
2023-01-05T15:10:07.220Z,18.60
2023-01-05T15:12:53.106Z,13.30
2023-01-05T15:15:28.869Z,10.70
2023-01-05T15:18:17.254Z,11.77
2023-01-05T15:21:09.572Z,14.95
2023-01-05T15:23:51.963Z,16.60
2023-01-05T15:26:28.089Z,7.65
2023-01-05T15:29:03.231Z,14.68
2023-01-05T15:31:34.893Z,17.95
2023-01-05T15:34:07.869Z,13.65
2023-01-05T15:36:38.744Z,9.05
2023-01-05T15:39:21.563Z,15.43
2023-01-05T15:41:51.611Z,13.60
2023-01-05T15:44:22.094Z,14.55
2023-01-05T15:46:51.932Z,16.00
2023-01-05T15:49:20.379Z,10.43
2023-01-05T15:51:52.248Z,15.93
2023-01-05T15:54:23.831Z,13.90
2023-01-05T15:56:51.929Z,14.35
2023-01-05T15:59:25.673Z,16.70
2023-01-05T16:01:54.776Z,11.40
2023-01-05T16:04:24.436Z,13.27
2023-01-05T16:06:56.306Z,11.35
2023-01-05T16:09:26.188Z,16.80
2023-01-05T16:11:56.140Z,19.90
2023-01-05T16:14:28.838Z,19.13
2023-01-05T16:16:59.789Z,12.48
2023-01-05T16:19:28.881Z,11.88
2023-01-05T16:21:57.760Z,21.58
2023-01-05T16:24:27.820Z,15.60
2023-01-05T16:26:55.915Z,16.98
2023-01-05T16:29:32.654Z,13.88
2023-01-05T16:32:03.510Z,17.13
2023-01-05T16:34:31.625Z,24.45
2023-01-05T16:37:00.311Z,21.83
2023-01-05T16:39:32.833Z,24.73
2023-01-05T16:42:22.051Z,15.23
2023-01-05T16:45:01.321Z,20.00
2023-01-05T16:47:37.468Z,12.52
2023-01-05T16:50:26.174Z,12.65
2023-01-05T16:52:54.069Z,13.75
2023-01-05T16:55:28.393Z,16.55
2023-01-05T16:57:56.608Z,15.48
2023-01-05T17:00:35.383Z,19.42
2023-01-05T17:03:04.889Z,13.48
2023-01-05T17:05:34.046Z,14.30
2023-01-05T17:08:05.214Z,13.55
2023-01-05T17:10:32.969Z,14.32
2023-01-05T17:13:01.756Z,14.48
2023-01-05T17:15:32.737Z,19.67
2023-01-05T17:18:00.805Z,21.23
2023-01-05T17:20:30.681Z,24.27
2023-01-05T17:22:58.414Z,17.33
2023-01-05T17:25:28.805Z,14.68
2023-01-05T17:27:56.328Z,14.30
2023-01-05T17:30:24.285Z,17.50
2023-01-05T17:32:51.939Z,15.05
2023-01-05T17:35:20.134Z,18.20
2023-01-05T17:37:49.290Z,26.58
2023-01-05T17:40:19.010Z,13.18
2023-01-05T17:42:46.738Z,24.40
2023-01-05T17:45:15.632Z,9.60
2023-01-05T17:47:43.230Z,18.15
2023-01-05T17:50:14.161Z,14.05
2023-01-05T17:52:41.746Z,13.73
2023-01-05T17:55:11.905Z,12.55
2023-01-05T17:57:39.948Z,16.92
2023-01-05T18:00:08.887Z,15.00
2023-01-05T18:02:38.213Z,13.70
2023-01-05T18:05:06.321Z,15.05
2023-01-05T18:07:34.452Z,21.83
2023-01-05T18:10:02.035Z,20.35
2023-01-05T18:12:32.571Z,11.82
2023-01-05T18:15:00.314Z,11.00
2023-01-05T18:17:28.013Z,13.60
2023-01-05T18:19:55.751Z,13.07
2023-01-05T18:22:23.326Z,16.23
2023-01-05T18:24:50.956Z,19.60
2023-01-05T18:27:18.480Z,30.75
2023-01-05T18:29:47.396Z,44.28
2023-01-05T18:32:14.959Z,74.05
2023-01-05T18:34:42.862Z,70.53
2023-01-05T18:37:15.694Z,67.38
2023-01-05T18:39:48.802Z,51.55
2023-01-05T18:42:16.445Z,40.45
2023-01-05T18:44:43.956Z,50.40
2023-01-05T18:47:12.884Z,37.10
2023-01-05T18:49:40.410Z,15.07
2023-01-05T18:52:08.379Z,16.00
2023-01-05T18:54:35.990Z,13.23
2023-01-05T18:57:03.747Z,14.85
2023-01-05T18:59:31.879Z,14.70
2023-01-05T19:01:59.553Z,13.02
2023-01-05T19:04:28.843Z,11.20
2023-01-05T19:06:56.898Z,13.32
2023-01-05T19:09:24.673Z,14.55
2023-01-05T19:11:52.502Z,7.47
2023-01-05T19:14:20.620Z,13.45
2023-01-05T19:16:49.009Z,15.98
2023-01-05T19:19:16.980Z,13.73
2023-01-05T19:21:46.086Z,18.05
2023-01-05T19:24:17.878Z,18.70
2023-01-05T19:26:45.785Z,21.23
2023-01-05T19:29:13.845Z,14.30
2023-01-05T19:31:41.644Z,24.73
2023-01-05T19:34:09.461Z,30.30
2023-01-05T19:36:37.038Z,28.73
2023-01-05T19:39:08.712Z,19.75
2023-01-05T19:41:36.543Z,24.20
2023-01-05T19:44:04.132Z,24.92
2023-01-05T19:46:31.794Z,25.58
2023-01-05T19:49:01.060Z,26.80
2023-01-05T19:51:29.823Z,28.17
2023-01-05T19:53:58.555Z,29.67
2023-01-05T19:56:28.334Z,32.28
2023-01-05T19:58:56.913Z,28.92
2023-01-05T20:01:25.367Z,26.15
2023-01-05T20:03:53.183Z,33.72
2023-01-05T20:06:26.008Z,26.98
2023-01-05T20:08:54.400Z,30.80
2023-01-05T20:11:35.700Z,23.08
2023-01-05T20:14:05.985Z,33.30
2023-01-05T20:16:34.134Z,28.85
2023-01-05T20:19:01.739Z,23.85
2023-01-05T20:21:31.461Z,34.30
2023-01-05T20:23:59.488Z,31.63
2023-01-05T20:26:27.079Z,30.92
2023-01-05T20:28:56.454Z,31.05
2023-01-05T20:31:26.871Z,26.13
2023-01-05T20:33:55.374Z,29.63
2023-01-05T20:36:23.645Z,25.05
2023-01-05T20:38:51.316Z,26.33
2023-01-05T20:41:22.879Z,26.00
2023-01-05T20:43:51.242Z,33.83
2023-01-05T20:46:20.167Z,38.78
2023-01-05T20:48:49.471Z,24.83
2023-01-05T20:51:17.454Z,28.00
2023-01-05T20:53:45.073Z,28.63
2023-01-05T20:56:16.082Z,28.50
2023-01-05T20:58:44.303Z,24.67
2023-01-05T21:01:12.888Z,25.90
2023-01-05T21:03:40.503Z,33.38
2023-01-05T21:06:10.831Z,30.17
2023-01-05T21:08:38.788Z,28.80
2023-01-05T21:11:07.116Z,24.60
2023-01-05T21:13:34.688Z,29.88
2023-01-05T21:16:04.432Z,31.83
2023-01-05T21:18:33.140Z,39.50
2023-01-05T21:21:00.661Z,30.25
2023-01-05T21:23:29.631Z,30.85
2023-01-05T21:26:05.819Z,30.60
2023-01-05T21:28:36.152Z,29.15
2023-01-05T21:31:04.707Z,38.75
2023-01-05T21:33:32.580Z,36.38
2023-01-05T21:36:00.144Z,34.30
2023-01-05T21:39:01.338Z,30.27
2023-01-05T21:41:39.290Z,29.20
2023-01-05T21:44:07.419Z,31.67
2023-01-05T21:46:35.056Z,50.53
2023-01-05T21:49:02.662Z,44.10
2023-01-05T21:51:47.340Z,56.28
2023-01-05T21:54:34.016Z,37.72
2023-01-05T21:57:02.321Z,47.50
2023-01-05T21:59:30.171Z,43.20
2023-01-05T22:01:57.789Z,41.47
2023-01-05T22:04:25.473Z,42.53
2023-01-05T22:06:53.185Z,52.80
2023-01-05T22:09:22.220Z,50.85
2023-01-05T22:11:49.850Z,33.72
2023-01-05T22:14:17.780Z,37.33
2023-01-05T22:16:45.498Z,35.20
2023-01-05T22:19:13.264Z,32.53
2023-01-05T22:21:41.036Z,26.52
2023-01-05T22:24:10.211Z,34.83
2023-01-05T22:26:39.120Z,49.88
2023-01-05T22:29:06.577Z,62.35
2023-01-05T22:31:35.561Z,43.85
2023-01-05T22:34:03.191Z,25.10
2023-01-05T22:36:31.097Z,32.67
2023-01-05T22:38:59.132Z,28.83
2023-01-05T22:41:27.816Z,22.75
2023-01-05T22:43:56.679Z,25.90
2023-01-05T22:46:25.220Z,23.25
2023-01-05T22:48:53.494Z,29.35
2023-01-05T22:51:21.790Z,23.23
2023-01-05T22:53:49.725Z,25.13
2023-01-05T22:56:18.168Z,25.13
2023-01-05T22:58:45.920Z,27.60
2023-01-05T23:01:15.447Z,23.48
2023-01-05T23:03:43.328Z,29.50
2023-01-05T23:06:11.982Z,29.60
2023-01-05T23:08:40.520Z,22.25
2023-01-05T23:11:10.033Z,23.65
2023-01-05T23:13:37.747Z,24.33
2023-01-05T23:16:06.340Z,26.65
2023-01-05T23:18:36.668Z,24.58
2023-01-05T23:21:05.559Z,23.90
2023-01-05T23:23:33.786Z,30.80
2023-01-05T23:26:01.347Z,26.58
2023-01-05T23:28:29.750Z,33.45
2023-01-05T23:30:58.171Z,20.88
2023-01-05T23:33:27.729Z,25.80
2023-01-05T23:35:57.225Z,25.20
2023-01-05T23:38:25.529Z,26.70
2023-01-05T23:40:54.330Z,28.60
2023-01-05T23:43:23.065Z,25.13
2023-01-05T23:45:51.537Z,30.10
2023-01-05T23:48:19.189Z,18.58
2023-01-05T23:50:47.583Z,23.58
2023-01-05T23:53:17.189Z,18.70
2023-01-05T23:55:44.698Z,28.15
2023-01-05T23:58:12.361Z,23.42
